Time;durP1;ratioP1;P1;durP2;ratioP2;P2;SDS_P1;SDS_P2;PMS_P1;PMS_P2;Temp;Humidity;BMP_temperature;BMP_pressure;BME280_temperature;BME280_humidity;BME280_pressure;Samples;Min_cycle;Max_cycle;Signal;HPM_P1;HPM_P2
2022/03/27 00:02:23;;;;;;;10.50;9.40;;;9.90;58.50;;;;;;5077450;28;20214;-85
2022/03/27 00:04:48;;;;;;;13.30;9.87;;;9.90;58.00;;;;;;5083762;28;20205;-87
2022/03/27 00:07:14;;;;;;;12.07;9.40;;;10.00;56.80;;;;;;5079659;28;20215;-86
2022/03/27 00:09:40;;;;;;;14.47;10.17;;;10.00;56.80;;;;;;5075725;28;20167;-86
2022/03/27 00:12:06;;;;;;;10.83;9.40;;;9.90;57.80;;;;;;5075136;28;20172;-90
2022/03/27 00:14:32;;;;;;;10.53;8.73;;;9.90;57.90;;;;;;5074753;28;20229;-90
2022/03/27 00:16:57;;;;;;;9.97;8.97;;;9.90;57.50;;;;;;5075046;28;20502;-90
2022/03/27 00:19:24;;;;;;;15.83;8.97;;;9.90;57.70;;;;;;5075544;28;20175;-87
2022/03/27 00:21:50;;;;;;;10.77;8.80;;;9.90;57.50;;;;;;5075039;28;20221;-88
2022/03/27 00:24:16;;;;;;;10.27;8.60;;;10.00;56.60;;;;;;5073873;28;20638;-87
2022/03/27 00:26:41;;;;;;;10.10;8.37;;;10.00;56.60;;;;;;5075034;28;20174;-86
2022/03/27 00:29:08;;;;;;;11.97;8.83;;;10.00;56.70;;;;;;5073172;28;20585;-91
2022/03/27 00:31:38;;;;;;;12.73;9.33;;;9.90;57.50;;;;;;5074915;28;20171;-90
2022/03/27 00:34:05;;;;;;;9.77;8.77;;;9.80;57.70;;;;;;5074267;28;20171;-90
2022/03/27 00:36:31;;;;;;;10.87;9.43;;;9.80;57.90;;;;;;5075322;28;20173;-91
2022/03/27 00:38:57;;;;;;;13.00;9.47;;;9.70;57.90;;;;;;5076014;28;20696;-90
2022/03/27 00:41:24;;;;;;;14.80;9.17;;;9.60;58.10;;;;;;5083971;28;20218;-91
2022/03/27 00:43:50;;;;;;;11.47;9.13;;;9.70;58.20;;;;;;5084612;28;20171;-91
2022/03/27 00:46:16;;;;;;;11.27;9.30;;;9.60;58.40;;;;;;5076133;28;20172;-92
2022/03/27 00:48:42;;;;;;;12.90;9.57;;;9.60;58.60;;;;;;5074709;28;20172;-88
2022/03/27 00:51:08;;;;;;;12.10;9.87;;;9.50;58.80;;;;;;5074714;28;20246;-92
2022/03/27 00:53:34;;;;;;;10.97;9.77;;;9.50;59.10;;;;;;5072873;28;20174;-89
2022/03/27 00:55:59;;;;;;;11.43;10.23;;;9.40;59.40;;;;;;5074177;28;20175;-86
2022/03/27 00:58:25;;;;;;;13.70;9.80;;;9.30;59.50;;;;;;5075801;28;20257;-88
2022/03/27 01:01:01;;;;;;;14.97;10.27;;;9.30;59.50;;;;;;5074881;28;20171;-90
2022/03/27 01:03:27;;;;;;;12.90;9.37;;;9.30;59.50;;;;;;5073494;28;20190;-87
2022/03/27 01:05:57;;;;;;;12.67;10.47;;;9.20;59.60;;;;;;5074073;28;20201;-87
2022/03/27 01:11:18;;;;;;;13.90;9.67;;;9.20;59.80;;;;;;5074369;28;20200;-88
2022/03/27 01:13:49;;;;;;;12.53;9.33;;;9.10;59.40;;;;;;5074802;28;20522;-89
2022/03/27 01:16:40;;;;;;;11.90;10.20;;;9.20;59.30;;;;;;5074899;28;20182;-90
2022/03/27 01:19:08;;;;;;;11.80;9.93;;;9.10;59.50;;;;;;5076207;28;20174;-89
2022/03/27 01:21:37;;;;;;;11.33;9.10;;;9.10;59.60;;;;;;5085887;28;20201;-91
2022/03/27 01:24:02;;;;;;;10.07;9.13;;;9.00;59.60;;;;;;5086952;28;20182;-90
2022/03/27 01:26:29;;;;;;;12.37;9.97;;;9.00;59.70;;;;;;5075139;28;20253;-91
2022/03/27 01:28:55;;;;;;;11.60;9.73;;;9.00;59.90;;;;;;5074035;28;20174;-91
2022/03/27 01:31:22;;;;;;;14.40;9.80;;;9.00;59.80;;;;;;5073149;28;20761;-89
2022/03/27 01:33:48;;;;;;;14.07;9.43;;;9.00;59.90;;;;;;5073456;28;20181;-91
2022/03/27 01:36:22;;;;;;;13.07;10.10;;;9.00;60.00;;;;;;5079230;28;20659;-89
2022/03/27 01:38:49;;;;;;;10.73;9.57;;;8.90;60.10;;;;;;5085119;28;20184;-93
2022/03/27 01:41:15;;;;;;;11.80;9.93;;;8.80;60.20;;;;;;5076027;28;20569;-90
2022/03/27 01:43:41;;;;;;;16.97;10.40;;;8.80;60.40;;;;;;5078733;28;20182;-93
2022/03/27 01:46:07;;;;;;;16.33;10.07;;;8.80;60.40;;;;;;5074486;28;20175;-90
2022/03/27 01:48:33;;;;;;;10.93;9.63;;;8.80;60.40;;;;;;5073751;28;20174;-91
2022/03/27 01:51:02;;;;;;;14.83;10.60;;;8.80;60.50;;;;;;5073358;28;20587;-92
2022/03/27 01:53:28;;;;;;;11.43;9.77;;;8.80;60.50;;;;;;5073498;28;20175;-87
2022/03/27 01:55:54;;;;;;;12.40;10.17;;;8.80;60.50;;;;;;5073129;28;20180;-88
2022/03/27 01:58:21;;;;;;;10.93;9.70;;;8.80;60.70;;;;;;5073023;28;20533;-87
2022/03/27 02:00:47;;;;;;;11.83;9.87;;;8.70;60.60;;;;;;5073941;28;20257;-87
2022/03/27 02:03:12;;;;;;;10.33;9.23;;;8.70;60.60;;;;;;5073748;28;20277;-89
2022/03/27 02:05:38;;;;;;;12.40;10.23;;;8.60;60.90;;;;;;5073396;28;20170;-88
2022/03/27 02:08:04;;;;;;;10.57;9.47;;;8.60;60.90;;;;;;5073170;28;20179;-88
2022/03/27 02:10:30;;;;;;;10.50;9.40;;;8.60;60.90;;;;;;5072695;28;20168;-87
2022/03/27 02:12:59;;;;;;;12.73;10.83;;;8.60;60.80;;;;;;5072889;28;20181;-88
2022/03/27 02:15:25;;;;;;;13.03;10.17;;;8.50;61.00;;;;;;5074719;28;20185;-90
2022/03/27 02:17:51;;;;;;;11.70;9.63;;;8.50;61.10;;;;;;5077080;28;20177;-88
2022/03/27 02:20:17;;;;;;;11.00;9.27;;;8.50;61.10;;;;;;5076941;28;20175;-89
2022/03/27 02:22:43;;;;;;;11.03;9.67;;;8.50;61.10;;;;;;5076836;28;20595;-90
2022/03/27 02:25:09;;;;;;;12.77;9.40;;;8.50;61.20;;;;;;5076876;28;20170;-86
2022/03/27 02:27:35;;;;;;;15.13;10.10;;;8.50;61.20;;;;;;5077249;28;20171;-87
2022/03/27 02:30:02;;;;;;;11.47;10.20;;;8.50;61.20;;;;;;5077896;28;20182;-90
2022/03/27 02:32:27;;;;;;;14.83;9.57;;;8.50;61.20;;;;;;5078850;28;20185;-85
2022/03/27 02:34:53;;;;;;;12.03;9.90;;;8.50;61.20;;;;;;5079167;28;20531;-90
2022/03/27 02:37:19;;;;;;;14.40;9.70;;;8.50;61.20;;;;;;5078698;28;20178;-85
2022/03/27 02:39:44;;;;;;;13.57;9.47;;;8.60;61.30;;;;;;5077959;28;20170;-92
2022/03/27 02:42:11;;;;;;;11.00;9.20;;;8.60;61.20;;;;;;5076811;28;20627;-88
2022/03/27 02:44:36;;;;;;;12.37;9.50;;;8.50;61.10;;;;;;5078625;28;20193;-85
2022/03/27 02:47:04;;;;;;;10.30;9.30;;;8.50;61.30;;;;;;5078161;28;20180;-85
2022/03/27 02:49:30;;;;;;;13.80;10.27;;;8.50;61.40;;;;;;5076621;28;20255;-87
2022/03/27 02:51:56;;;;;;;12.00;10.00;;;8.50;61.40;;;;;;5075527;28;20219;-87
2022/03/27 02:54:22;;;;;;;11.60;10.40;;;8.50;61.30;;;;;;5077407;28;20178;-87
2022/03/27 02:56:48;;;;;;;14.87;9.47;;;8.60;61.30;;;;;;5090987;28;20185;-83
2022/03/27 02:59:13;;;;;;;11.90;10.40;;;8.50;61.30;;;;;;5080855;28;20175;-85
2022/03/27 03:01:39;;;;;;;13.83;9.70;;;8.50;61.60;;;;;;5086835;28;20720;-86
2022/03/27 03:04:05;;;;;;;16.43;9.70;;;8.40;61.70;;;;;;5082515;28;20585;-87
2022/03/27 03:06:34;;;;;;;13.27;10.23;;;8.40;61.80;;;;;;5084106;28;20186;-91
2022/03/27 03:09:01;;;;;;;13.40;10.30;;;8.40;61.80;;;;;;5077422;28;20629;-88
2022/03/27 03:11:27;;;;;;;12.23;9.77;;;8.30;62.20;;;;;;5075211;28;20224;-90
2022/03/27 03:13:53;;;;;;;15.70;9.67;;;8.20;62.30;;;;;;5076586;28;20524;-89
2022/03/27 03:16:21;;;;;;;11.57;9.73;;;8.20;62.60;;;;;;5077675;28;20256;-91
2022/03/27 03:18:48;;;;;;;12.13;10.03;;;8.20;62.70;;;;;;5078034;28;20166;-90
2022/03/27 03:21:13;;;;;;;13.70;10.63;;;8.10;62.80;;;;;;5088088;28;20176;-86
2022/03/27 03:23:39;;;;;;;11.70;9.67;;;8.10;62.70;;;;;;5087326;28;20187;-92
2022/03/27 03:26:05;;;;;;;13.67;10.67;;;8.00;62.90;;;;;;5089780;28;20173;-88
2022/03/27 03:28:31;;;;;;;15.13;10.13;;;8.00;63.30;;;;;;5086062;28;20187;-86
2022/03/27 03:30:57;;;;;;;11.37;9.90;;;8.00;63.30;;;;;;5093009;28;20176;-87
2022/03/27 03:33:22;;;;;;;12.10;9.77;;;7.90;63.30;;;;;;5090165;28;20631;-88
2022/03/27 03:35:48;;;;;;;11.90;10.03;;;7.90;63.50;;;;;;5085022;28;20183;-90
2022/03/27 03:38:14;;;;;;;11.73;10.53;;;7.90;63.60;;;;;;5083994;28;20210;-91
2022/03/27 03:40:41;;;;;;;12.13;10.43;;;7.90;63.70;;;;;;5080180;28;20309;-89
2022/03/27 03:43:07;;;;;;;10.63;9.47;;;7.80;64.00;;;;;;5075965;28;20598;-91
2022/03/27 03:45:33;;;;;;;14.00;10.63;;;7.80;63.80;;;;;;5076060;28;20159;-91
2022/03/27 03:47:59;;;;;;;11.23;10.13;;;7.80;63.90;;;;;;5076557;28;20182;-91
2022/03/27 03:50:26;;;;;;;15.77;10.80;;;7.80;63.80;;;;;;5083404;28;20205;-90
2022/03/27 03:52:52;;;;;;;13.20;10.63;;;7.80;64.10;;;;;;5086566;28;20316;-87
2022/03/27 03:55:18;;;;;;;11.73;10.30;;;7.80;64.00;;;;;;5085682;28;20175;-91
2022/03/27 03:57:46;;;;;;;13.10;10.03;;;7.80;64.10;;;;;;5082978;28;20540;-90
2022/03/27 04:00:12;;;;;;;12.17;9.63;;;7.80;64.20;;;;;;5078812;28;20168;-91
2022/03/27 04:02:38;;;;;;;13.10;10.37;;;7.80;64.10;;;;;;5076155;28;20294;-92
2022/03/27 04:05:05;;;;;;;11.90;9.97;;;7.80;64.20;;;;;;5077363;28;20163;-92
2022/03/27 04:07:31;;;;;;;11.87;9.97;;;7.80;64.50;;;;;;5078952;28;20175;-92
2022/03/27 04:09:57;;;;;;;14.10;10.47;;;7.80;64.20;;;;;;5081442;28;20174;-93
2022/03/27 04:12:22;;;;;;;12.83;9.90;;;7.80;64.60;;;;;;5076571;28;20171;-91
2022/03/27 04:14:48;;;;;;;11.70;10.50;;;7.80;64.10;;;;;;5076086;28;20552;-87
2022/03/27 04:17:14;;;;;;;12.77;9.90;;;7.70;64.50;;;;;;5077302;28;20178;-84
2022/03/27 04:19:40;;;;;;;11.93;10.47;;;7.70;64.60;;;;;;5075294;28;20179;-84
2022/03/27 04:22:07;;;;;;;12.27;10.27;;;7.70;64.80;;;;;;5074575;28;20675;-84
2022/03/27 04:24:33;;;;;;;13.07;10.57;;;7.70;64.90;;;;;;5073384;28;20181;-86
2022/03/27 04:26:59;;;;;;;12.77;10.27;;;7.70;64.60;;;;;;5074512;28;20175;-83
2022/03/27 04:29:25;;;;;;;14.73;11.23;;;7.70;65.00;;;;;;5074738;28;20169;-87
2022/03/27 04:31:51;;;;;;;15.47;10.40;;;7.70;64.70;;;;;;5075462;28;20171;-85
2022/03/27 04:34:17;;;;;;;12.03;9.73;;;7.70;64.80;;;;;;5072980;28;20179;-89
2022/03/27 04:36:43;;;;;;;14.10;10.40;;;7.70;65.10;;;;;;5074109;28;20174;-86
2022/03/27 04:39:09;;;;;;;11.87;10.50;;;7.70;64.90;;;;;;5074280;28;20203;-86
2022/03/27 04:41:36;;;;;;;12.80;10.93;;;7.70;65.40;;;;;;5074253;28;20253;-85
2022/03/27 04:44:03;;;;;;;13.90;9.33;;;7.60;65.80;;;;;;5074215;28;20181;-85
2022/03/27 04:46:29;;;;;;;12.90;10.77;;;7.60;66.00;;;;;;5073949;28;20183;-85
2022/03/27 04:48:55;;;;;;;12.33;10.40;;;7.50;65.80;;;;;;5072564;28;20187;-85
2022/03/27 04:51:21;;;;;;;13.23;10.07;;;7.50;65.90;;;;;;5073873;28;20197;-86
2022/03/27 04:53:49;;;;;;;13.30;10.63;;;7.50;65.80;;;;;;5073692;28;20172;-86
2022/03/27 04:56:15;;;;;;;13.00;10.60;;;7.50;66.00;;;;;;5073600;28;20267;-88
2022/03/27 04:58:41;;;;;;;13.97;10.53;;;7.60;66.00;;;;;;5074110;28;20181;-85
2022/03/27 05:01:07;;;;;;;13.10;10.53;;;7.60;66.10;;;;;;5074013;28;20173;-89
2022/03/27 05:03:32;;;;;;;13.67;11.53;;;7.50;66.30;;;;;;5072508;28;20221;-87
2022/03/27 05:05:59;;;;;;;16.70;11.67;;;7.50;66.60;;;;;;5072850;28;20263;-86
2022/03/27 05:08:26;;;;;;;16.50;12.63;;;7.40;66.80;;;;;;5074310;28;20193;-85
2022/03/27 05:10:51;;;;;;;20.40;14.13;;;7.40;67.30;;;;;;5074875;28;20172;-85
2022/03/27 05:13:18;;;;;;;17.13;13.33;;;7.40;67.40;;;;;;5074254;28;20175;-87
2022/03/27 05:15:45;;;;;;;19.83;13.97;;;7.30;68.00;;;;;;5076814;28;20201;-92
2022/03/27 05:18:13;;;;;;;16.67;13.00;;;7.30;68.30;;;;;;5074842;28;20201;-87
2022/03/27 05:20:41;;;;;;;14.67;11.40;;;7.30;67.50;;;;;;5074197;28;20238;-90
2022/03/27 05:23:07;;;;;;;16.80;12.07;;;7.30;67.10;;;;;;5074076;28;20229;-91
2022/03/27 05:25:40;;;;;;;14.33;11.10;;;7.30;67.50;;;;;;5074027;28;20245;-91
2022/03/27 05:28:08;;;;;;;16.13;11.10;;;7.40;66.70;;;;;;5074819;28;20160;-89
2022/03/27 05:30:33;;;;;;;14.47;10.70;;;7.50;66.10;;;;;;5076003;28;20167;-91
2022/03/27 05:32:59;;;;;;;13.80;11.80;;;7.50;66.00;;;;;;5082817;28;20200;-91
2022/03/27 05:35:25;;;;;;;15.83;12.27;;;7.50;66.00;;;;;;5079038;28;20652;-91
2022/03/27 05:37:52;;;;;;;18.50;12.87;;;7.60;67.20;;;;;;5073962;28;20263;-86
2022/03/27 05:40:20;;;;;;;16.40;11.70;;;7.70;67.10;;;;;;5073380;28;20176;-85
2022/03/27 05:42:47;;;;;;;13.50;11.03;;;7.70;66.60;;;;;;5072147;28;20314;-88
2022/03/27 05:45:13;;;;;;;14.03;10.80;;;7.70;65.60;;;;;;5073634;28;20194;-84
2022/03/27 05:47:42;;;;;;;14.50;10.43;;;7.80;65.60;;;;;;5072384;28;20248;-87
2022/03/27 05:50:10;;;;;;;13.33;10.50;;;7.70;65.60;;;;;;5073969;28;20178;-87
2022/03/27 05:52:36;;;;;;;12.43;10.63;;;7.60;65.80;;;;;;5073720;28;20178;-85
2022/03/27 05:55:03;;;;;;;12.53;10.60;;;7.70;65.80;;;;;;5074340;28;20583;-84
2022/03/27 05:57:29;;;;;;;15.20;10.60;;;7.70;65.90;;;;;;5074319;28;20223;-85
2022/03/27 05:59:55;;;;;;;13.47;10.77;;;7.70;65.70;;;;;;5073691;28;20171;-83
2022/03/27 06:02:20;;;;;;;13.00;10.73;;;7.70;65.70;;;;;;5071793;28;20557;-84
2022/03/27 06:04:46;;;;;;;13.80;11.27;;;7.70;65.50;;;;;;5073099;28;20519;-90
2022/03/27 06:07:12;;;;;;;13.13;10.37;;;7.80;65.50;;;;;;5073064;28;20231;-84
2022/03/27 06:09:37;;;;;;;14.67;10.40;;;7.90;65.50;;;;;;5072542;28;20196;-85
2022/03/27 06:12:04;;;;;;;16.00;10.93;;;7.90;66.00;;;;;;5072928;28;20301;-84
2022/03/27 06:14:30;;;;;;;15.93;11.13;;;8.00;65.20;;;;;;5072471;28;20175;-83
2022/03/27 06:16:56;;;;;;;15.73;11.10;;;8.10;65.10;;;;;;5072657;28;20273;-85
2022/03/27 06:19:22;;;;;;;16.73;10.67;;;8.20;64.80;;;;;;5072947;28;20193;-85
2022/03/27 06:21:48;;;;;;;13.93;10.77;;;8.30;64.70;;;;;;5073830;28;20202;-83
2022/03/27 06:24:13;;;;;;;24.90;11.10;;;8.40;65.00;;;;;;5079221;28;20182;-83
2022/03/27 06:26:40;;;;;;;14.60;11.50;;;8.40;64.90;;;;;;5075888;28;20175;-83
2022/03/27 06:29:09;;;;;;;12.83;11.13;;;8.40;64.70;;;;;;5073102;28;20623;-84
2022/03/27 06:31:36;;;;;;;13.73;10.70;;;8.50;64.20;;;;;;5071721;28;20196;-86
2022/03/27 06:34:03;;;;;;;13.87;10.43;;;8.60;63.80;;;;;;5072861;28;20199;-86
2022/03/27 06:36:28;;;;;;;13.20;10.87;;;8.70;64.00;;;;;;5071921;28;20186;-86
2022/03/27 06:38:54;;;;;;;14.03;10.90;;;8.70;63.70;;;;;;5072748;28;20316;-85
2022/03/27 06:41:20;;;;;;;14.90;10.43;;;8.80;63.50;;;;;;5071574;28;20227;-85
2022/03/27 06:43:45;;;;;;;13.33;10.60;;;8.90;63.60;;;;;;5073041;28;20197;-87
2022/03/27 06:46:16;;;;;;;14.23;10.77;;;9.00;63.20;;;;;;5071617;28;20280;-85
2022/03/27 06:48:41;;;;;;;16.17;10.60;;;9.10;63.10;;;;;;5073042;28;20176;-85
2022/03/27 06:51:07;;;;;;;14.07;10.93;;;9.20;63.10;;;;;;5072470;28;20684;-89
2022/03/27 06:53:33;;;;;;;12.10;10.30;;;9.30;62.70;;;;;;5076756;28;20530;-85
2022/03/27 06:55:59;;;;;;;13.33;10.20;;;9.30;62.60;;;;;;5076179;28;20232;-85
2022/03/27 06:58:24;;;;;;;14.10;10.80;;;9.40;62.40;;;;;;5075026;28;20173;-92
2022/03/27 07:03:34;;;;;;;13.90;10.60;;;9.50;62.30;;;;;;5077118;28;20600;-88
2022/03/27 07:06:00;;;;;;;14.83;10.63;;;9.60;61.80;;;;;;5077297;28;20170;-90
2022/03/27 07:08:26;;;;;;;14.47;11.33;;;9.70;61.80;;;;;;5080653;28;20193;-90
2022/03/27 07:10:51;;;;;;;12.07;10.07;;;9.80;62.40;;;;;;5089205;28;20186;-85
2022/03/27 07:13:19;;;;;;;12.90;10.63;;;9.80;61.70;;;;;;5086557;28;20183;-88
2022/03/27 07:15:47;;;;;;;15.27;11.03;;;9.90;61.60;;;;;;5081505;28;20182;-89
2022/03/27 07:18:13;;;;;;;13.10;10.70;;;9.90;61.30;;;;;;5076178;28;20175;-87
2022/03/27 07:20:45;;;;;;;14.63;10.60;;;10.00;60.00;;;;;;5076079;28;20685;-91
2022/03/27 07:23:16;;;;;;;14.57;10.70;;;10.20;60.10;;;;;;5076619;28;20187;-89
2022/03/27 07:25:44;;;;;;;12.43;11.10;;;10.20;60.10;;;;;;5074395;28;20183;-87
2022/03/27 07:28:11;;;;;;;13.03;10.87;;;10.30;59.60;;;;;;5075681;28;20166;-85
2022/03/27 07:30:37;;;;;;;16.00;10.60;;;10.40;59.90;;;;;;5074188;28;20167;-86
2022/03/27 07:33:04;;;;;;;12.63;10.83;;;10.50;59.50;;;;;;5077112;28;20175;-83
2022/03/27 07:35:30;;;;;;;13.67;11.03;;;10.60;59.40;;;;;;5078747;28;20169;-86
2022/03/27 07:37:56;;;;;;;15.57;11.10;;;10.70;59.30;;;;;;5079531;28;20171;-84
2022/03/27 07:40:23;;;;;;;12.87;10.43;;;10.90;59.10;;;;;;5076155;28;20369;-84
2022/03/27 07:42:50;;;;;;;13.57;10.93;;;10.90;58.80;;;;;;5076050;28;20220;-86
2022/03/27 07:45:19;;;;;;;12.77;10.57;;;11.00;59.00;;;;;;5075459;28;20217;-88
2022/03/27 07:47:46;;;;;;;17.13;11.43;;;11.10;59.10;;;;;;5074510;28;20511;-89
2022/03/27 07:50:12;;;;;;;13.17;11.07;;;11.20;58.50;;;;;;5075036;28;20678;-84
2022/03/27 07:52:39;;;;;;;16.23;10.90;;;11.30;58.20;;;;;;5074723;28;20191;-85
2022/03/27 07:55:07;;;;;;;15.80;10.97;;;11.50;58.20;;;;;;5076270;28;20621;-85
2022/03/27 07:57:33;;;;;;;11.97;10.63;;;11.60;58.00;;;;;;5077324;28;20585;-86
2022/03/27 07:59:59;;;;;;;16.67;10.83;;;11.60;57.90;;;;;;5075702;28;20687;-84
2022/03/27 08:02:25;;;;;;;15.87;11.87;;;11.70;57.70;;;;;;5073665;28;20239;-85
2022/03/27 08:04:51;;;;;;;19.50;11.07;;;11.70;57.60;;;;;;5076466;28;20640;-84
2022/03/27 08:07:17;;;;;;;13.83;11.00;;;11.70;57.60;;;;;;5075183;28;20172;-86
2022/03/27 08:09:43;;;;;;;13.37;10.77;;;11.80;57.20;;;;;;5074540;28;20168;-83
2022/03/27 08:12:09;;;;;;;12.17;10.87;;;11.90;57.00;;;;;;5077183;28;20175;-85
2022/03/27 08:14:36;;;;;;;13.73;11.33;;;11.90;56.60;;;;;;5081478;28;20652;-87
2022/03/27 08:17:03;;;;;;;17.23;11.67;;;12.10;56.50;;;;;;5078843;28;20729;-84
2022/03/27 08:19:29;;;;;;;12.30;10.27;;;12.10;56.10;;;;;;5080148;28;20164;-85
2022/03/27 08:21:55;;;;;;;12.93;11.53;;;12.20;57.50;;;;;;5084938;28;20270;-86
2022/03/27 08:24:22;;;;;;;13.37;11.50;;;12.30;56.10;;;;;;5086096;28;20175;-87
2022/03/27 08:26:58;;;;;;;17.93;12.80;;;12.30;55.90;;;;;;5079681;28;20173;-87
2022/03/27 08:29:26;;;;;;;17.97;12.23;;;12.40;56.00;;;;;;5075918;28;20165;-85
2022/03/27 08:31:52;;;;;;;17.47;12.00;;;12.60;55.40;;;;;;5073766;28;20269;-84
2022/03/27 08:34:20;;;;;;;16.43;11.63;;;12.70;55.20;;;;;;5073001;28;20250;-85
2022/03/27 08:36:47;;;;;;;15.10;11.37;;;12.70;55.10;;;;;;5073955;28;20167;-82
2022/03/27 08:39:13;;;;;;;22.57;12.33;;;12.90;55.20;;;;;;5072785;28;20190;-85
2022/03/27 08:41:43;;;;;;;17.87;12.07;;;12.90;55.20;;;;;;5073482;28;20309;-84
2022/03/27 08:44:14;;;;;;;14.50;12.10;;;12.90;55.50;;;;;;5074151;28;20206;-84
2022/03/27 08:46:42;;;;;;;16.67;11.57;;;13.00;55.50;;;;;;5075268;28;20174;-83
2022/03/27 08:49:23;;;;;;;18.70;12.03;;;13.00;55.90;;;;;;5074374;28;20180;-84
2022/03/27 08:52:02;;;;;;;17.97;12.50;;;13.10;56.40;;;;;;5073634;28;20605;-87
2022/03/27 08:54:51;;;;;;;14.60;12.37;;;13.20;56.30;;;;;;5074063;28;20220;-88
2022/03/27 08:57:26;;;;;;;19.23;12.17;;;13.20;56.30;;;;;;5070634;28;20244;-87
2022/03/27 08:59:53;;;;;;;21.27;13.93;;;13.20;56.40;;;;;;5075916;28;20253;-90
2022/03/27 09:02:23;;;;;;;21.83;13.83;;;13.20;56.10;;;;;;5073483;28;20753;-89
2022/03/27 09:04:53;;;;;;;17.83;12.70;;;13.30;56.30;;;;;;5075232;28;20193;-87
2022/03/27 09:07:20;;;;;;;17.17;12.07;;;13.40;56.90;;;;;;5082560;28;20179;-90
2022/03/27 09:09:45;;;;;;;19.57;13.57;;;13.40;57.00;;;;;;5078750;28;20167;-89
2022/03/27 09:12:12;;;;;;;18.83;12.70;;;13.50;57.00;;;;;;5081080;28;20269;-90
2022/03/27 09:14:41;;;;;;;19.77;12.73;;;13.60;57.00;;;;;;5079541;28;20630;-85
2022/03/27 09:17:08;;;;;;;21.73;13.33;;;13.70;57.00;;;;;;5074172;28;20528;-86
2022/03/27 09:19:43;;;;;;;18.90;13.37;;;13.80;56.90;;;;;;5073403;28;20182;-86
2022/03/27 09:22:23;;;;;;;16.93;12.87;;;13.80;56.70;;;;;;5080833;28;20205;-86
2022/03/27 09:25:00;;;;;;;16.43;12.27;;;13.90;56.40;;;;;;5077001;28;20159;-85
2022/03/27 09:27:33;;;;;;;16.50;12.30;;;14.00;56.90;;;;;;5074520;28;20712;-90
2022/03/27 09:30:08;;;;;;;20.77;13.47;;;14.00;57.10;;;;;;5072997;28;20792;-92
2022/03/27 09:32:37;;;;;;;19.70;14.00;;;14.30;56.70;;;;;;5073775;28;20688;-90
2022/03/27 09:35:10;;;;;;;15.83;13.50;;;14.30;56.90;;;;;;5072164;28;20229;-87
2022/03/27 09:37:38;;;;;;;17.37;13.67;;;14.30;56.90;;;;;;5074174;28;20162;-91
2022/03/27 09:40:09;;;;;;;20.30;14.33;;;14.30;57.50;;;;;;5073782;28;20183;-87
2022/03/27 09:42:38;;;;;;;17.27;13.80;;;14.40;57.10;;;;;;5073676;28;20215;-86
2022/03/27 09:45:23;;;;;;;21.60;14.27;;;14.50;57.30;;;;;;5073281;28;20179;-89
2022/03/27 09:47:50;;;;;;;18.40;14.27;;;14.60;57.50;;;;;;5075301;28;20166;-86
2022/03/27 09:50:34;;;;;;;20.53;14.20;;;14.60;57.20;;;;;;5073955;28;20182;-89
2022/03/27 09:53:36;;;;;;;16.80;13.87;;;14.70;56.00;;;;;;5077781;28;20179;-89
2022/03/27 09:56:01;;;;;;;16.67;13.20;;;14.80;56.30;;;;;;5038742;28;20175;-86
2022/03/27 09:58:37;;;;;;;18.70;15.00;;;14.90;56.90;;;;;;5055426;28;20265;-88
2022/03/27 10:01:24;;;;;;;21.03;14.03;;;14.90;56.40;;;;;;5036373;28;20199;-91
2022/03/27 10:04:13;;;;;;;20.43;14.73;;;15.00;56.00;;;;;;5051048;28;20306;-86
2022/03/27 10:06:41;;;;;;;19.83;14.80;;;14.90;55.90;;;;;;5034444;28;20176;-89
2022/03/27 10:09:08;;;;;;;16.80;15.03;;;14.90;56.20;;;;;;5051034;28;20205;-84
2022/03/27 10:11:35;;;;;;;19.50;15.33;;;14.90;56.00;;;;;;5050359;28;20262;-86
2022/03/27 10:14:04;;;;;;;19.10;15.30;;;15.30;54.80;;;;;;5050609;28;20661;-85
2022/03/27 10:16:33;;;;;;;22.27;16.00;;;15.30;54.50;;;;;;5033713;28;20651;-91
2022/03/27 10:19:23;;;;;;;20.47;16.00;;;15.40;53.90;;;;;;5051975;28;20179;-90
2022/03/27 10:21:51;;;;;;;27.67;16.50;;;15.20;53.50;;;;;;5034530;28;20196;-89
2022/03/27 10:24:19;;;;;;;21.87;15.57;;;15.20;53.60;;;;;;5052160;28;20205;-89
2022/03/27 10:26:46;;;;;;;21.73;16.40;;;15.20;53.70;;;;;;5035906;28;20708;-88
2022/03/27 10:29:14;;;;;;;21.80;15.07;;;15.20;53.20;;;;;;5042169;28;20188;-91
2022/03/27 10:31:40;;;;;;;21.80;16.10;;;15.40;52.60;;;;;;5075498;28;20176;-90
2022/03/27 10:34:09;;;;;;;19.83;16.63;;;15.60;51.90;;;;;;5086457;28;20175;-89
2022/03/27 10:36:50;;;;;;;20.80;16.37;;;15.60;51.80;;;;;;5082890;28;20171;-88
2022/03/27 10:39:40;;;;;;;21.93;15.60;;;15.60;51.80;;;;;;5077859;28;20829;-85
2022/03/27 10:42:15;;;;;;;23.87;15.77;;;15.60;51.20;;;;;;5076557;28;20223;-88
2022/03/27 10:44:44;;;;;;;18.73;15.27;;;15.60;52.10;;;;;;5076175;28;20191;-86
2022/03/27 10:47:18;;;;;;;21.80;15.90;;;15.70;52.50;;;;;;5075213;28;20201;-85
2022/03/27 10:50:04;;;;;;;24.73;16.60;;;15.70;50.90;;;;;;5076784;28;20283;-86
2022/03/27 10:52:36;;;;;;;20.30;15.07;;;15.90;50.80;;;;;;5072020;28;20549;-87
2022/03/27 10:55:11;;;;;;;19.40;15.53;;;16.00;50.20;;;;;;5075120;28;20266;-88
2022/03/27 10:57:55;;;;;;;18.47;14.70;;;16.00;50.40;;;;;;5076143;28;20247;-87
2022/03/27 11:00:39;;;;;;;21.47;15.77;;;15.90;49.70;;;;;;5077220;28;20683;-87
2022/03/27 11:03:05;;;;;;;24.00;16.10;;;15.80;49.80;;;;;;5078402;28;20549;-91
2022/03/27 11:05:35;;;;;;;24.13;15.67;;;16.00;49.80;;;;;;5078179;28;20175;-89
2022/03/27 11:08:18;;;;;;;20.27;15.53;;;16.00;50.10;;;;;;5086131;28;20328;-90
2022/03/27 11:10:51;;;;;;;26.67;16.33;;;16.10;50.20;;;;;;5078962;28;20181;-87
2022/03/27 11:13:26;;;;;;;22.13;16.37;;;16.20;50.00;;;;;;5075873;28;20176;-90
2022/03/27 11:16:03;;;;;;;21.17;15.70;;;16.20;50.00;;;;;;5075789;28;20178;-89
2022/03/27 11:18:37;;;;;;;21.13;15.23;;;16.30;49.80;;;;;;5078105;28;20167;-89
2022/03/27 11:21:07;;;;;;;23.60;15.30;;;16.30;48.90;;;;;;5082827;28;20171;-89
2022/03/27 11:23:37;;;;;;;21.30;15.83;;;16.30;48.80;;;;;;5076753;28;20217;-90
2022/03/27 11:26:24;;;;;;;19.43;15.23;;;16.30;48.60;;;;;;5076909;28;20167;-85
2022/03/27 11:28:55;;;;;;;18.43;14.53;;;16.20;49.80;;;;;;5072234;28;20183;-85
2022/03/27 11:31:31;;;;;;;19.30;15.03;;;16.30;49.80;;;;;;5075238;28;20190;-87
2022/03/27 11:34:12;;;;;;;18.23;14.13;;;16.30;49.30;;;;;;5078558;28;20529;-87
2022/03/27 11:37:09;;;;;;;22.00;15.30;;;16.40;49.60;;;;;;5082145;28;20246;-90
2022/03/27 11:39:36;;;;;;;23.30;16.03;;;16.50;49.90;;;;;;5089118;28;20177;-88
2022/03/27 11:42:25;;;;;;;22.70;15.03;;;16.60;48.90;;;;;;5083498;28;20233;-86
2022/03/27 11:45:12;;;;;;;18.27;15.63;;;16.60;48.90;;;;;;5075171;28;20171;-85
2022/03/27 11:47:49;;;;;;;23.13;15.87;;;16.60;49.40;;;;;;5075344;28;20256;-84
2022/03/27 11:50:24;;;;;;;20.47;16.23;;;16.60;49.10;;;;;;5076514;28;20209;-85
2022/03/27 11:52:50;;;;;;;23.17;16.07;;;16.70;49.20;;;;;;5074902;28;20522;-84
2022/03/27 11:55:19;;;;;;;19.77;15.03;;;16.70;49.50;;;;;;5075114;28;20252;-88
2022/03/27 11:57:46;;;;;;;20.67;14.90;;;16.80;49.30;;;;;;5076733;28;20701;-86
2022/03/27 12:00:14;;;;;;;21.87;15.07;;;16.90;48.40;;;;;;5077189;28;20207;-86
2022/03/27 12:02:43;;;;;;;18.73;15.60;;;16.90;48.90;;;;;;5075093;28;20199;-85
2022/03/27 12:05:10;;;;;;;18.70;14.10;;;17.00;48.10;;;;;;5075619;28;20537;-85
2022/03/27 12:07:57;;;;;;;19.47;14.50;;;17.00;48.70;;;;;;5074458;28;20171;-84
2022/03/27 12:10:24;;;;;;;18.93;14.33;;;17.00;49.40;;;;;;5074157;28;20178;-88
2022/03/27 12:13:01;;;;;;;18.67;15.00;;;16.90;49.10;;;;;;5075434;28;20603;-86
2022/03/27 12:15:42;;;;;;;18.43;14.87;;;17.00;48.60;;;;;;5074287;28;20171;-84
2022/03/27 12:18:08;;;;;;;18.50;14.70;;;17.00;48.70;;;;;;5075340;28;20163;-87
2022/03/27 12:20:45;;;;;;;17.33;14.27;;;17.10;48.50;;;;;;5076944;28;20175;-85
2022/03/27 12:23:41;;;;;;;20.43;13.70;;;17.00;48.60;;;;;;5076761;28;20198;-86
2022/03/27 12:32:00;;;;;;;21.07;15.73;;;17.20;50.00;;;;;;5074624;28;20527;-85
2022/03/27 12:34:27;;;;;;;25.50;14.33;;;17.30;49.50;;;;;;5074201;28;20256;-87
2022/03/27 12:37:09;;;;;;;19.53;14.37;;;17.40;49.00;;;;;;5073768;28;20181;-87
2022/03/27 12:40:01;;;;;;;22.17;13.90;;;17.40;48.70;;;;;;5074412;28;20171;-85
2022/03/27 12:42:32;;;;;;;17.77;13.70;;;17.40;49.00;;;;;;5074582;28;20278;-84
2022/03/27 12:45:19;;;;;;;20.17;13.97;;;17.40;48.70;;;;;;5077088;28;20163;-88
2022/03/27 12:48:17;;;;;;;18.67;13.40;;;17.40;48.30;;;;;;5075414;28;20171;-87
2022/03/27 12:50:47;;;;;;;19.83;14.40;;;17.50;48.50;;;;;;5075380;28;20183;-88
2022/03/27 12:53:24;;;;;;;18.83;13.60;;;17.50;48.10;;;;;;5077618;28;20167;-86
2022/03/27 12:56:02;;;;;;;16.60;14.33;;;17.50;48.60;;;;;;5078570;28;20206;-89
2022/03/27 12:58:37;;;;;;;16.77;13.70;;;17.40;48.30;;;;;;5081028;28;20178;-89